EGSC

Cambridge Airport

Cambridge, United Kingdom
METAR EGSC 211750Z 17014KT 9000 RA BKN006 02/02 Q1007
Observed Flight Rules
Jan-21 @ 17:50 UTC (3 hours ago) Instrument Flight Rules
Wind Visibility Clouds Conditions
170° at 14 knots 8,996 meters
  • Broken at 600' AGL
  • Rain
Temperatures Readings
Current 2°C / 36°F
Dewpoint 2°C / 36°F
Humidity 100%
Altimeter 29.73" Hg
Pressure 1007 hPa
Elevation 15
METAR EGSC 211750Z 17014KT 9000 RA BKN006 02/02 Q1007
Observed Flight Rules
Jan-21 @ 17:50 UTC
(3 hours ago)
IFR
Wind Visibility
170° at 14 knots 8,996 meters
Clouds
  • Broken at 600' AGL
Conditions
  • Rain
Temperature Dewpoint
2°C / 36°F 2°C / 36°F
Humidity Altimeter Pressure
100% 29.73" Hg 1007 hPa